sensor_id;sensor_type;location;lat;lon;timestamp;P1;durP1;ratioP1;P2;durP2;ratioP2
70946;SDS011;58605;48.700;8.760;2022-11-20T00:01:59;5.40;;;4.27;;
70946;SDS011;58605;48.700;8.760;2022-11-20T00:04:25;5.50;;;4.80;;
70946;SDS011;58605;48.700;8.760;2022-11-20T00:06:50;5.13;;;4.63;;
70946;SDS011;58605;48.700;8.760;2022-11-20T00:09:16;6.30;;;5.27;;
70946;SDS011;58605;48.700;8.760;2022-11-20T00:11:42;4.73;;;4.33;;
70946;SDS011;58605;48.700;8.760;2022-11-20T00:14:12;6.03;;;5.07;;
70946;SDS011;58605;48.700;8.760;2022-11-20T00:16:39;9.50;;;6.93;;
70946;SDS011;58605;48.700;8.760;2022-11-20T00:19:05;7.30;;;6.17;;
70946;SDS011;58605;48.700;8.760;2022-11-20T00:21:31;6.30;;;5.03;;
70946;SDS011;58605;48.700;8.760;2022-11-20T00:23:57;12.00;;;4.90;;
70946;SDS011;58605;48.700;8.760;2022-11-20T00:26:24;6.30;;;4.83;;
70946;SDS011;58605;48.700;8.760;2022-11-20T00:28:51;6.97;;;4.87;;
70946;SDS011;58605;48.700;8.760;2022-11-20T00:31:19;6.20;;;4.50;;
70946;SDS011;58605;48.700;8.760;2022-11-20T00:33:47;23.57;;;5.90;;
70946;SDS011;58605;48.700;8.760;2022-11-20T00:36:14;33.07;;;7.50;;
70946;SDS011;58605;48.700;8.760;2022-11-20T00:38:41;110.07;;;9.63;;
70946;SDS011;58605;48.700;8.760;2022-11-20T00:41:09;34.97;;;6.67;;
70946;SDS011;58605;48.700;8.760;2022-11-20T00:43:36;24.27;;;7.20;;
70946;SDS011;58605;48.700;8.760;2022-11-20T00:46:03;61.77;;;7.20;;
70946;SDS011;58605;48.700;8.760;2022-11-20T00:48:31;35.87;;;5.87;;
70946;SDS011;58605;48.700;8.760;2022-11-20T00:50:58;42.13;;;6.57;;
70946;SDS011;58605;48.700;8.760;2022-11-20T00:53:24;31.83;;;5.80;;
70946;SDS011;58605;48.700;8.760;2022-11-20T00:55:54;16.60;;;5.00;;
70946;SDS011;58605;48.700;8.760;2022-11-20T00:58:21;9.60;;;4.27;;
70946;SDS011;58605;48.700;8.760;2022-11-20T01:00:47;5.80;;;4.90;;
70946;SDS011;58605;48.700;8.760;2022-11-20T01:03:14;4.67;;;3.90;;
70946;SDS011;58605;48.700;8.760;2022-11-20T01:05:41;16.70;;;6.27;;
70946;SDS011;58605;48.700;8.760;2022-11-20T01:08:08;7.50;;;4.73;;
70946;SDS011;58605;48.700;8.760;2022-11-20T01:10:34;32.23;;;6.77;;
70946;SDS011;58605;48.700;8.760;2022-11-20T01:13:00;15.57;;;5.07;;
70946;SDS011;58605;48.700;8.760;2022-11-20T01:15:45;33.03;;;6.23;;
70946;SDS011;58605;48.700;8.760;2022-11-20T01:18:11;43.73;;;7.67;;
70946;SDS011;58605;48.700;8.760;2022-11-20T01:20:37;44.47;;;6.93;;
70946;SDS011;58605;48.700;8.760;2022-11-20T01:23:03;36.00;;;6.47;;
70946;SDS011;58605;48.700;8.760;2022-11-20T01:25:31;15.17;;;4.70;;
70946;SDS011;58605;48.700;8.760;2022-11-20T01:27:56;32.07;;;6.73;;
70946;SDS011;58605;48.700;8.760;2022-11-20T01:30:22;25.10;;;6.13;;
70946;SDS011;58605;48.700;8.760;2022-11-20T01:32:48;14.40;;;5.80;;
70946;SDS011;58605;48.700;8.760;2022-11-20T01:35:14;18.60;;;6.50;;
70946;SDS011;58605;48.700;8.760;2022-11-20T01:37:40;14.07;;;5.77;;
70946;SDS011;58605;48.700;8.760;2022-11-20T01:40:06;15.50;;;6.80;;
70946;SDS011;58605;48.700;8.760;2022-11-20T01:42:34;104.47;;;9.87;;
70946;SDS011;58605;48.700;8.760;2022-11-20T01:48:25;220.10;;;15.40;;
70946;SDS011;58605;48.700;8.760;2022-11-20T01:50:54;158.50;;;11.73;;
70946;SDS011;58605;48.700;8.760;2022-11-20T01:53:21;164.40;;;13.23;;
70946;SDS011;58605;48.700;8.760;2022-11-20T01:55:50;89.83;;;9.23;;
70946;SDS011;58605;48.700;8.760;2022-11-20T01:58:20;60.43;;;7.70;;
70946;SDS011;58605;48.700;8.760;2022-11-20T02:00:51;27.33;;;6.10;;
70946;SDS011;58605;48.700;8.760;2022-11-20T02:03:17;15.30;;;5.87;;
70946;SDS011;58605;48.700;8.760;2022-11-20T02:05:46;77.90;;;6.77;;
70946;SDS011;58605;48.700;8.760;2022-11-20T02:08:16;15.00;;;6.40;;
70946;SDS011;58605;48.700;8.760;2022-11-20T02:10:43;9.17;;;7.37;;
70946;SDS011;58605;48.700;8.760;2022-11-20T02:13:09;10.23;;;8.30;;
70946;SDS011;58605;48.700;8.760;2022-11-20T02:15:55;9.37;;;7.23;;
70946;SDS011;58605;48.700;8.760;2022-11-20T02:18:21;38.10;;;6.77;;
70946;SDS011;58605;48.700;8.760;2022-11-20T02:20:50;6.47;;;5.73;;
70946;SDS011;58605;48.700;8.760;2022-11-20T02:23:22;7.37;;;6.33;;
70946;SDS011;58605;48.700;8.760;2022-11-20T02:25:53;7.43;;;6.10;;
70946;SDS011;58605;48.700;8.760;2022-11-20T02:28:20;38.27;;;6.50;;
70946;SDS011;58605;48.700;8.760;2022-11-20T02:30:47;79.83;;;8.57;;
70946;SDS011;58605;48.700;8.760;2022-11-20T02:33:13;125.90;;;10.53;;
70946;SDS011;58605;48.700;8.760;2022-11-20T02:35:53;60.23;;;7.10;;
70946;SDS011;58605;48.700;8.760;2022-11-20T02:38:19;10.87;;;6.00;;
70946;SDS011;58605;48.700;8.760;2022-11-20T02:40:45;6.87;;;5.50;;
70946;SDS011;58605;48.700;8.760;2022-11-20T02:43:13;6.53;;;5.87;;
70946;SDS011;58605;48.700;8.760;2022-11-20T02:45:40;6.13;;;5.50;;
70946;SDS011;58605;48.700;8.760;2022-11-20T02:48:06;63.97;;;7.83;;
70946;SDS011;58605;48.700;8.760;2022-11-20T02:50:32;15.20;;;5.60;;
70946;SDS011;58605;48.700;8.760;2022-11-20T02:52:58;78.77;;;8.37;;
70946;SDS011;58605;48.700;8.760;2022-11-20T02:55:24;34.13;;;6.87;;
70946;SDS011;58605;48.700;8.760;2022-11-20T02:57:50;31.93;;;7.23;;
70946;SDS011;58605;48.700;8.760;2022-11-20T03:00:18;10.47;;;5.47;;
70946;SDS011;58605;48.700;8.760;2022-11-20T03:02:44;7.53;;;6.10;;
70946;SDS011;58605;48.700;8.760;2022-11-20T03:05:10;11.40;;;7.57;;
70946;SDS011;58605;48.700;8.760;2022-11-20T03:07:36;7.70;;;6.90;;
70946;SDS011;58605;48.700;8.760;2022-11-20T03:10:02;7.17;;;5.77;;
70946;SDS011;58605;48.700;8.760;2022-11-20T03:12:28;211.97;;;17.90;;
70946;SDS011;58605;48.700;8.760;2022-11-20T03:14:54;106.33;;;11.00;;
70946;SDS011;58605;48.700;8.760;2022-11-20T03:17:22;41.53;;;8.60;;
70946;SDS011;58605;48.700;8.760;2022-11-20T03:19:48;203.00;;;16.53;;
70946;SDS011;58605;48.700;8.760;2022-11-20T03:22:13;79.07;;;10.20;;
70946;SDS011;58605;48.700;8.760;2022-11-20T03:24:40;43.60;;;7.33;;
70946;SDS011;58605;48.700;8.760;2022-11-20T03:27:06;30.37;;;7.00;;
70946;SDS011;58605;48.700;8.760;2022-11-20T03:29:31;7.07;;;5.67;;
70946;SDS011;58605;48.700;8.760;2022-11-20T03:31:57;6.67;;;5.77;;
70946;SDS011;58605;48.700;8.760;2022-11-20T03:34:25;9.03;;;6.10;;
70946;SDS011;58605;48.700;8.760;2022-11-20T03:36:57;6.97;;;6.03;;
70946;SDS011;58605;48.700;8.760;2022-11-20T03:39:23;11.23;;;6.80;;
70946;SDS011;58605;48.700;8.760;2022-11-20T03:41:49;31.07;;;7.33;;
70946;SDS011;58605;48.700;8.760;2022-11-20T03:44:15;24.60;;;7.93;;
70946;SDS011;58605;48.700;8.760;2022-11-20T03:46:41;30.93;;;7.30;;
70946;SDS011;58605;48.700;8.760;2022-11-20T03:49:07;18.40;;;7.10;;
70946;SDS011;58605;48.700;8.760;2022-11-20T03:51:35;10.23;;;7.47;;
70946;SDS011;58605;48.700;8.760;2022-11-20T03:54:02;8.13;;;6.30;;
70946;SDS011;58605;48.700;8.760;2022-11-20T03:56:31;8.00;;;6.90;;
70946;SDS011;58605;48.700;8.760;2022-11-20T03:58:58;8.20;;;6.43;;
70946;SDS011;58605;48.700;8.760;2022-11-20T04:01:25;10.50;;;6.97;;
70946;SDS011;58605;48.700;8.760;2022-11-20T04:03:52;6.63;;;5.97;;
70946;SDS011;58605;48.700;8.760;2022-11-20T04:06:20;9.87;;;6.07;;
70946;SDS011;58605;48.700;8.760;2022-11-20T04:08:48;7.97;;;6.27;;
70946;SDS011;58605;48.700;8.760;2022-11-20T04:11:15;7.83;;;6.03;;
70946;SDS011;58605;48.700;8.760;2022-11-20T04:13:45;7.37;;;6.50;;
70946;SDS011;58605;48.700;8.760;2022-11-20T04:16:13;7.77;;;6.57;;
70946;SDS011;58605;48.700;8.760;2022-11-20T04:18:39;7.00;;;6.23;;
70946;SDS011;58605;48.700;8.760;2022-11-20T04:21:05;8.60;;;6.70;;
70946;SDS011;58605;48.700;8.760;2022-11-20T04:23:32;7.53;;;6.20;;
70946;SDS011;58605;48.700;8.760;2022-11-20T04:26:02;6.63;;;5.93;;
70946;SDS011;58605;48.700;8.760;2022-11-20T04:28:29;6.67;;;5.60;;
70946;SDS011;58605;48.700;8.760;2022-11-20T04:31:00;6.73;;;5.23;;
70946;SDS011;58605;48.700;8.760;2022-11-20T04:33:27;6.20;;;5.60;;
70946;SDS011;58605;48.700;8.760;2022-11-20T04:35:53;6.67;;;5.87;;
70946;SDS011;58605;48.700;8.760;2022-11-20T04:38:19;25.57;;;7.23;;
70946;SDS011;58605;48.700;8.760;2022-11-20T04:40:45;13.53;;;5.73;;
70946;SDS011;58605;48.700;8.760;2022-11-20T04:43:12;8.00;;;5.50;;
70946;SDS011;58605;48.700;8.760;2022-11-20T04:45:38;6.50;;;5.57;;
70946;SDS011;58605;48.700;8.760;2022-11-20T04:48:04;7.27;;;5.73;;
70946;SDS011;58605;48.700;8.760;2022-11-20T04:50:30;6.80;;;5.90;;
70946;SDS011;58605;48.700;8.760;2022-11-20T04:52:56;7.70;;;5.83;;
70946;SDS011;58605;48.700;8.760;2022-11-20T04:55:22;5.67;;;5.10;;
70946;SDS011;58605;48.700;8.760;2022-11-20T04:57:49;4.73;;;4.23;;
70946;SDS011;58605;48.700;8.760;2022-11-20T05:00:18;5.00;;;4.50;;
70946;SDS011;58605;48.700;8.760;2022-11-20T05:02:44;4.90;;;4.30;;
70946;SDS011;58605;48.700;8.760;2022-11-20T05:05:10;4.23;;;3.83;;
70946;SDS011;58605;48.700;8.760;2022-11-20T05:07:36;4.67;;;3.90;;
70946;SDS011;58605;48.700;8.760;2022-11-20T05:10:02;3.83;;;3.50;;
70946;SDS011;58605;48.700;8.760;2022-11-20T05:12:28;3.97;;;3.67;;
70946;SDS011;58605;48.700;8.760;2022-11-20T05:14:54;4.10;;;3.20;;
70946;SDS011;58605;48.700;8.760;2022-11-20T05:17:22;4.00;;;3.60;;
70946;SDS011;58605;48.700;8.760;2022-11-20T05:19:48;4.70;;;3.87;;
70946;SDS011;58605;48.700;8.760;2022-11-20T05:22:13;3.53;;;3.23;;
70946;SDS011;58605;48.700;8.760;2022-11-20T05:24:39;3.53;;;3.23;;
70946;SDS011;58605;48.700;8.760;2022-11-20T05:27:05;4.70;;;3.40;;
70946;SDS011;58605;48.700;8.760;2022-11-20T05:29:31;3.60;;;3.30;;
70946;SDS011;58605;48.700;8.760;2022-11-20T05:31:57;3.73;;;3.33;;
70946;SDS011;58605;48.700;8.760;2022-11-20T05:34:24;3.40;;;3.10;;
70946;SDS011;58605;48.700;8.760;2022-11-20T05:36:50;3.37;;;2.90;;
70946;SDS011;58605;48.700;8.760;2022-11-20T05:39:16;3.57;;;3.27;;
70946;SDS011;58605;48.700;8.760;2022-11-20T05:41:42;3.30;;;3.00;;
70946;SDS011;58605;48.700;8.760;2022-11-20T05:44:09;3.67;;;3.10;;
70946;SDS011;58605;48.700;8.760;2022-11-20T05:46:35;3.50;;;3.20;;
70946;SDS011;58605;48.700;8.760;2022-11-20T05:49:01;4.10;;;3.27;;
70946;SDS011;58605;48.700;8.760;2022-11-20T05:51:29;3.37;;;3.00;;
70946;SDS011;58605;48.700;8.760;2022-11-20T05:53:56;3.37;;;3.07;;
70946;SDS011;58605;48.700;8.760;2022-11-20T05:56:28;3.50;;;3.20;;
70946;SDS011;58605;48.700;8.760;2022-11-20T05:58:55;3.07;;;2.87;;
70946;SDS011;58605;48.700;8.760;2022-11-20T06:01:22;3.90;;;3.50;;
70946;SDS011;58605;48.700;8.760;2022-11-20T06:03:50;4.67;;;2.90;;
70946;SDS011;58605;48.700;8.760;2022-11-20T06:06:18;3.47;;;3.23;;
70946;SDS011;58605;48.700;8.760;2022-11-20T06:08:46;4.40;;;3.30;;
70946;SDS011;58605;48.700;8.760;2022-11-20T06:11:12;3.40;;;3.10;;
70946;SDS011;58605;48.700;8.760;2022-11-20T06:13:39;4.57;;;3.50;;
70946;SDS011;58605;48.700;8.760;2022-11-20T06:16:06;3.33;;;3.03;;
70946;SDS011;58605;48.700;8.760;2022-11-20T06:18:32;4.40;;;3.20;;
70946;SDS011;58605;48.700;8.760;2022-11-20T06:21:02;4.87;;;2.80;;
70946;SDS011;58605;48.700;8.760;2022-11-20T06:23:30;3.30;;;3.00;;
70946;SDS011;58605;48.700;8.760;2022-11-20T06:25:58;3.33;;;2.93;;
70946;SDS011;58605;48.700;8.760;2022-11-20T06:28:26;3.27;;;2.97;;
70946;SDS011;58605;48.700;8.760;2022-11-20T06:30:52;3.40;;;3.10;;
70946;SDS011;58605;48.700;8.760;2022-11-20T06:33:18;3.30;;;3.00;;
70946;SDS011;58605;48.700;8.760;2022-11-20T06:35:44;4.67;;;3.30;;
70946;SDS011;58605;48.700;8.760;2022-11-20T06:38:10;3.47;;;2.87;;
70946;SDS011;58605;48.700;8.760;2022-11-20T06:40:38;5.03;;;3.10;;
70946;SDS011;58605;48.700;8.760;2022-11-20T06:43:07;3.40;;;2.83;;
70946;SDS011;58605;48.700;8.760;2022-11-20T06:45:33;3.07;;;2.77;;
70946;SDS011;58605;48.700;8.760;2022-11-20T06:47:59;3.17;;;2.60;;
70946;SDS011;58605;48.700;8.760;2022-11-20T06:50:25;3.07;;;2.77;;
70946;SDS011;58605;48.700;8.760;2022-11-20T06:52:51;4.27;;;2.70;;
70946;SDS011;58605;48.700;8.760;2022-11-20T06:55:17;4.10;;;3.00;;
70946;SDS011;58605;48.700;8.760;2022-11-20T06:57:42;3.50;;;3.20;;
70946;SDS011;58605;48.700;8.760;2022-11-20T07:00:11;4.10;;;3.10;;
70946;SDS011;58605;48.700;8.760;2022-11-20T07:02:37;3.43;;;3.10;;
70946;SDS011;58605;48.700;8.760;2022-11-20T07:05:03;3.10;;;2.53;;
70946;SDS011;58605;48.700;8.760;2022-11-20T07:07:29;3.20;;;2.93;;
70946;SDS011;58605;48.700;8.760;2022-11-20T07:09:55;3.10;;;2.80;;
70946;SDS011;58605;48.700;8.760;2022-11-20T07:12:22;3.00;;;2.80;;
70946;SDS011;58605;48.700;8.760;2022-11-20T07:14:47;2.70;;;2.40;;
70946;SDS011;58605;48.700;8.760;2022-11-20T07:17:18;3.10;;;2.77;;
70946;SDS011;58605;48.700;8.760;2022-11-20T07:19:43;2.57;;;2.37;;
70946;SDS011;58605;48.700;8.760;2022-11-20T07:22:09;2.70;;;2.50;;
70946;SDS011;58605;48.700;8.760;2022-11-20T07:24:35;2.60;;;2.40;;
70946;SDS011;58605;48.700;8.760;2022-11-20T07:27:01;3.10;;;2.80;;
70946;SDS011;58605;48.700;8.760;2022-11-20T07:29:27;3.50;;;2.47;;
70946;SDS011;58605;48.700;8.760;2022-11-20T07:31:53;2.07;;;1.97;;
70946;SDS011;58605;48.700;8.760;2022-11-20T07:34:23;2.80;;;2.60;;
70946;SDS011;58605;48.700;8.760;2022-11-20T07:36:48;8.23;;;3.17;;
70946;SDS011;58605;48.700;8.760;2022-11-20T07:39:14;2.60;;;2.40;;
70946;SDS011;58605;48.700;8.760;2022-11-20T07:41:40;2.90;;;2.70;;
70946;SDS011;58605;48.700;8.760;2022-11-20T07:44:06;3.20;;;2.50;;
70946;SDS011;58605;48.700;8.760;2022-11-20T07:46:32;2.50;;;2.30;;
70946;SDS011;58605;48.700;8.760;2022-11-20T07:48:58;3.00;;;2.80;;
70946;SDS011;58605;48.700;8.760;2022-11-20T07:51:25;3.47;;;2.43;;
70946;SDS011;58605;48.700;8.760;2022-11-20T07:53:52;2.63;;;2.33;;
70946;SDS011;58605;48.700;8.760;2022-11-20T07:56:18;2.40;;;2.20;;
70946;SDS011;58605;48.700;8.760;2022-11-20T07:58:44;2.40;;;2.20;;
70946;SDS011;58605;48.700;8.760;2022-11-20T08:01:10;2.50;;;2.30;;
70946;SDS011;58605;48.700;8.760;2022-11-20T08:03:36;2.40;;;2.20;;
70946;SDS011;58605;48.700;8.760;2022-11-20T08:06:05;2.47;;;2.27;;
70946;SDS011;58605;48.700;8.760;2022-11-20T08:08:33;2.10;;;2.00;;
70946;SDS011;58605;48.700;8.760;2022-11-20T08:10:59;3.40;;;1.83;;
70946;SDS011;58605;48.700;8.760;2022-11-20T08:13:43;1.97;;;1.87;;
70946;SDS011;58605;48.700;8.760;2022-11-20T08:16:28;1.90;;;1.80;;
70946;SDS011;58605;48.700;8.760;2022-11-20T08:18:54;1.87;;;1.77;;
70946;SDS011;58605;48.700;8.760;2022-11-20T08:21:20;2.20;;;2.00;;
70946;SDS011;58605;48.700;8.760;2022-11-20T08:23:47;2.40;;;2.20;;
70946;SDS011;58605;48.700;8.760;2022-11-20T08:26:13;3.00;;;2.00;;
70946;SDS011;58605;48.700;8.760;2022-11-20T08:28:39;2.10;;;2.00;;
70946;SDS011;58605;48.700;8.760;2022-11-20T08:31:05;2.33;;;2.10;;
70946;SDS011;58605;48.700;8.760;2022-11-20T08:33:31;2.67;;;1.90;;
70946;SDS011;58605;48.700;8.760;2022-11-20T08:35:58;2.00;;;1.90;;
70946;SDS011;58605;48.700;8.760;2022-11-20T08:38:25;2.10;;;1.90;;
70946;SDS011;58605;48.700;8.760;2022-11-20T08:40:52;2.20;;;2.00;;
70946;SDS011;58605;48.700;8.760;2022-11-20T08:43:40;1.80;;;1.70;;
70946;SDS011;58605;48.700;8.760;2022-11-20T08:46:06;2.10;;;2.00;;
70946;SDS011;58605;48.700;8.760;2022-11-20T08:48:32;1.80;;;1.70;;
70946;SDS011;58605;48.700;8.760;2022-11-20T08:50:58;1.77;;;1.67;;
70946;SDS011;58605;48.700;8.760;2022-11-20T08:53:24;1.87;;;1.77;;
70946;SDS011;58605;48.700;8.760;2022-11-20T08:55:50;1.80;;;1.70;;
70946;SDS011;58605;48.700;8.760;2022-11-20T08:58:18;3.27;;;1.70;;
70946;SDS011;58605;48.700;8.760;2022-11-20T09:00:44;1.80;;;1.70;;
70946;SDS011;58605;48.700;8.760;2022-11-20T09:03:09;1.70;;;1.60;;
70946;SDS011;58605;48.700;8.760;2022-11-20T09:05:35;1.37;;;1.37;;
70946;SDS011;58605;48.700;8.760;2022-11-20T09:08:01;1.80;;;1.70;;
70946;SDS011;58605;48.700;8.760;2022-11-20T09:10:28;1.27;;;1.27;;
70946;SDS011;58605;48.700;8.760;2022-11-20T09:12:54;1.60;;;1.50;;
70946;SDS011;58605;48.700;8.760;2022-11-20T09:15:22;1.70;;;1.60;;
70946;SDS011;58605;48.700;8.760;2022-11-20T09:17:51;1.80;;;1.60;;
70946;SDS011;58605;48.700;8.760;2022-11-20T09:20:17;1.60;;;1.50;;
70946;SDS011;58605;48.700;8.760;2022-11-20T09:22:43;1.80;;;1.70;;
70946;SDS011;58605;48.700;8.760;2022-11-20T09:25:09;2.00;;;1.70;;
70946;SDS011;58605;48.700;8.760;2022-11-20T09:27:35;1.50;;;1.40;;
70946;SDS011;58605;48.700;8.760;2022-11-20T09:30:02;1.53;;;1.50;;
70946;SDS011;58605;48.700;8.760;2022-11-20T09:32:30;1.67;;;1.50;;
70946;SDS011;58605;48.700;8.760;2022-11-20T09:34:56;1.97;;;1.80;;
70946;SDS011;58605;48.700;8.760;2022-11-20T09:37:22;1.60;;;1.50;;
70946;SDS011;58605;48.700;8.760;2022-11-20T09:39:48;1.70;;;1.60;;
70946;SDS011;58605;48.700;8.760;2022-11-20T09:42:17;1.60;;;1.50;;
70946;SDS011;58605;48.700;8.760;2022-11-20T09:45:01;1.50;;;1.40;;
70946;SDS011;58605;48.700;8.760;2022-11-20T09:47:45;1.70;;;1.60;;
70946;SDS011;58605;48.700;8.760;2022-11-20T09:50:32;1.80;;;1.70;;
70946;SDS011;58605;48.700;8.760;2022-11-20T09:53:10;1.70;;;1.60;;
70946;SDS011;58605;48.700;8.760;2022-11-20T09:55:38;2.23;;;1.80;;
70946;SDS011;58605;48.700;8.760;2022-11-20T09:58:05;1.80;;;1.70;;
70946;SDS011;58605;48.700;8.760;2022-11-20T10:00:32;2.07;;;1.87;;
70946;SDS011;58605;48.700;8.760;2022-11-20T10:03:03;2.23;;;2.00;;
70946;SDS011;58605;48.700;8.760;2022-11-20T10:05:37;2.20;;;1.90;;
70946;SDS011;58605;48.700;8.760;2022-11-20T10:08:09;1.80;;;1.70;;
70946;SDS011;58605;48.700;8.760;2022-11-20T10:10:42;2.30;;;2.10;;
70946;SDS011;58605;48.700;8.760;2022-11-20T10:13:17;2.53;;;2.33;;
70946;SDS011;58605;48.700;8.760;2022-11-20T10:15:55;2.00;;;1.80;;
70946;SDS011;58605;48.700;8.760;2022-11-20T10:18:33;2.60;;;2.10;;
70946;SDS011;58605;48.700;8.760;2022-11-20T10:21:16;2.23;;;2.03;;
70946;SDS011;58605;48.700;8.760;2022-11-20T10:23:57;2.00;;;1.90;;
70946;SDS011;58605;48.700;8.760;2022-11-20T10:26:55;2.80;;;2.60;;
70946;SDS011;58605;48.700;8.760;2022-11-20T10:29:32;2.43;;;2.10;;
70946;SDS011;58605;48.700;8.760;2022-11-20T10:32:00;3.30;;;2.40;;
70946;SDS011;58605;48.700;8.760;2022-11-20T10:34:30;2.50;;;2.30;;
70946;SDS011;58605;48.700;8.760;2022-11-20T10:36:59;3.23;;;2.20;;
70946;SDS011;58605;48.700;8.760;2022-11-20T10:39:32;3.53;;;2.33;;
70946;SDS011;58605;48.700;8.760;2022-11-20T10:42:03;3.00;;;2.00;;
70946;SDS011;58605;48.700;8.760;2022-11-20T10:44:36;3.67;;;2.53;;
70946;SDS011;58605;48.700;8.760;2022-11-20T10:47:22;2.57;;;2.20;;
70946;SDS011;58605;48.700;8.760;2022-11-20T10:49:52;3.43;;;2.10;;
70946;SDS011;58605;48.700;8.760;2022-11-20T10:52:21;5.40;;;2.77;;
70946;SDS011;58605;48.700;8.760;2022-11-20T10:54:58;3.40;;;2.47;;
70946;SDS011;58605;48.700;8.760;2022-11-20T10:57:34;3.10;;;2.27;;
70946;SDS011;58605;48.700;8.760;2022-11-20T11:00:12;3.17;;;2.87;;
70946;SDS011;58605;48.700;8.760;2022-11-20T11:02:39;2.80;;;2.53;;
70946;SDS011;58605;48.700;8.760;2022-11-20T11:05:20;3.33;;;2.50;;
70946;SDS011;58605;48.700;8.760;2022-11-20T11:07:53;2.40;;;2.20;;
70946;SDS011;58605;48.700;8.760;2022-11-20T11:10:22;4.07;;;2.30;;
70946;SDS011;58605;48.700;8.760;2022-11-20T11:12:51;5.40;;;4.90;;
70946;SDS011;58605;48.700;8.760;2022-11-20T11:15:24;3.97;;;2.50;;
70946;SDS011;58605;48.700;8.760;2022-11-20T11:17:52;2.70;;;2.10;;
70946;SDS011;58605;48.700;8.760;2022-11-20T11:20:20;3.67;;;2.50;;
70946;SDS011;58605;48.700;8.760;2022-11-20T11:22:47;3.47;;;2.30;;
70946;SDS011;58605;48.700;8.760;2022-11-20T11:25:22;2.53;;;2.33;;
70946;SDS011;58605;48.700;8.760;2022-11-20T11:27:51;4.90;;;2.27;;
70946;SDS011;58605;48.700;8.760;2022-11-20T11:30:18;4.70;;;2.63;;
70946;SDS011;58605;48.700;8.760;2022-11-20T11:32:45;2.60;;;2.40;;
70946;SDS011;58605;48.700;8.760;2022-11-20T11:35:20;2.93;;;2.40;;
70946;SDS011;58605;48.700;8.760;2022-11-20T11:37:48;6.10;;;2.60;;
70946;SDS011;58605;48.700;8.760;2022-11-20T11:40:16;2.53;;;2.30;;
70946;SDS011;58605;48.700;8.760;2022-11-20T11:42:46;2.33;;;1.90;;
70946;SDS011;58605;48.700;8.760;2022-11-20T11:45:17;2.53;;;2.17;;
70946;SDS011;58605;48.700;8.760;2022-11-20T11:47:44;5.13;;;2.33;;
70946;SDS011;58605;48.700;8.760;2022-11-20T11:50:17;2.63;;;2.30;;
70946;SDS011;58605;48.700;8.760;2022-11-20T11:52:49;3.63;;;2.53;;
70946;SDS011;58605;48.700;8.760;2022-11-20T11:55:26;2.37;;;2.00;;
70946;SDS011;58605;48.700;8.760;2022-11-20T11:57:59;3.90;;;2.40;;
70946;SDS011;58605;48.700;8.760;2022-11-20T12:00:34;2.13;;;2.00;;
70946;SDS011;58605;48.700;8.760;2022-11-20T12:03:04;2.30;;;2.10;;
70946;SDS011;58605;48.700;8.760;2022-11-20T12:05:38;2.97;;;2.20;;
70946;SDS011;58605;48.700;8.760;2022-11-20T12:08:11;3.83;;;2.20;;
70946;SDS011;58605;48.700;8.760;2022-11-20T12:10:44;3.00;;;2.23;;
70946;SDS011;58605;48.700;8.760;2022-11-20T12:13:17;3.43;;;2.00;;
70946;SDS011;58605;48.700;8.760;2022-11-20T12:15:50;7.23;;;2.27;;
70946;SDS011;58605;48.700;8.760;2022-11-20T12:18:17;4.53;;;2.17;;
70946;SDS011;58605;48.700;8.760;2022-11-20T12:20:48;8.33;;;7.60;;
70946;SDS011;58605;48.700;8.760;2022-11-20T12:23:28;2.10;;;2.00;;
70946;SDS011;58605;48.700;8.760;2022-11-20T12:26:01;2.30;;;2.10;;
70946;SDS011;58605;48.700;8.760;2022-11-20T12:28:44;2.53;;;2.33;;
70946;SDS011;58605;48.700;8.760;2022-11-20T12:31:31;3.63;;;1.90;;
70946;SDS011;58605;48.700;8.760;2022-11-20T12:34:16;3.70;;;2.43;;
70946;SDS011;58605;48.700;8.760;2022-11-20T12:36:56;2.13;;;1.90;;
70946;SDS011;58605;48.700;8.760;2022-11-20T12:39:30;2.40;;;2.10;;
70946;SDS011;58605;48.700;8.760;2022-11-20T12:45:14;2.50;;;2.30;;
70946;SDS011;58605;48.700;8.760;2022-11-20T12:47:58;2.37;;;1.93;;
70946;SDS011;58605;48.700;8.760;2022-11-20T12:50:46;5.60;;;2.10;;
70946;SDS011;58605;48.700;8.760;2022-11-20T12:53:22;3.87;;;2.17;;
70946;SDS011;58605;48.700;8.760;2022-11-20T12:55:56;3.83;;;2.20;;
70946;SDS011;58605;48.700;8.760;2022-11-20T12:58:32;5.70;;;2.10;;
70946;SDS011;58605;48.700;8.760;2022-11-20T13:01:06;2.57;;;1.93;;
70946;SDS011;58605;48.700;8.760;2022-11-20T13:04:05;4.13;;;1.80;;
70946;SDS011;58605;48.700;8.760;2022-11-20T13:06:36;3.13;;;2.33;;
70946;SDS011;58605;48.700;8.760;2022-11-20T13:09:06;2.17;;;1.97;;
70946;SDS011;58605;48.700;8.760;2022-11-20T13:11:37;2.70;;;1.90;;
70946;SDS011;58605;48.700;8.760;2022-11-20T13:14:16;3.43;;;2.10;;
70946;SDS011;58605;48.700;8.760;2022-11-20T13:16:52;3.37;;;2.20;;
70946;SDS011;58605;48.700;8.760;2022-11-20T13:19:22;2.80;;;2.00;;
70946;SDS011;58605;48.700;8.760;2022-11-20T13:21:49;2.80;;;2.00;;
70946;SDS011;58605;48.700;8.760;2022-11-20T13:24:35;2.70;;;2.10;;
70946;SDS011;58605;48.700;8.760;2022-11-20T13:27:02;3.03;;;2.03;;
70946;SDS011;58605;48.700;8.760;2022-11-20T13:29:42;3.27;;;2.03;;
70946;SDS011;58605;48.700;8.760;2022-11-20T13:32:13;1.70;;;1.60;;
70946;SDS011;58605;48.700;8.760;2022-11-20T13:34:50;3.00;;;1.90;;
70946;SDS011;58605;48.700;8.760;2022-11-20T13:37:23;2.10;;;2.00;;
70946;SDS011;58605;48.700;8.760;2022-11-20T13:39:53;4.13;;;1.90;;
70946;SDS011;58605;48.700;8.760;2022-11-20T13:42:51;2.37;;;2.17;;
70946;SDS011;58605;48.700;8.760;2022-11-20T13:45:22;2.10;;;1.97;;
70946;SDS011;58605;48.700;8.760;2022-11-20T13:47:49;2.97;;;1.97;;
70946;SDS011;58605;48.700;8.760;2022-11-20T13:50:17;3.30;;;2.23;;
70946;SDS011;58605;48.700;8.760;2022-11-20T13:52:45;2.67;;;2.10;;
70946;SDS011;58605;48.700;8.760;2022-11-20T13:55:20;3.23;;;2.30;;
70946;SDS011;58605;48.700;8.760;2022-11-20T13:57:52;3.23;;;2.30;;
70946;SDS011;58605;48.700;8.760;2022-11-20T14:00:26;2.13;;;2.00;;
70946;SDS011;58605;48.700;8.760;2022-11-20T14:02:58;2.23;;;1.90;;
70946;SDS011;58605;48.700;8.760;2022-11-20T14:05:27;2.27;;;1.80;;
70946;SDS011;58605;48.700;8.760;2022-11-20T14:07:56;2.50;;;2.30;;
70946;SDS011;58605;48.700;8.760;2022-11-20T14:10:25;2.50;;;2.13;;
70946;SDS011;58605;48.700;8.760;2022-11-20T14:12:52;2.80;;;2.10;;
70946;SDS011;58605;48.700;8.760;2022-11-20T14:15:25;2.40;;;1.80;;
70946;SDS011;58605;48.700;8.760;2022-11-20T14:17:54;3.67;;;1.80;;
70946;SDS011;58605;48.700;8.760;2022-11-20T14:20:20;2.10;;;1.90;;
70946;SDS011;58605;48.700;8.760;2022-11-20T14:22:50;1.97;;;1.77;;
70946;SDS011;58605;48.700;8.760;2022-11-20T14:25:21;2.10;;;2.00;;
70946;SDS011;58605;48.700;8.760;2022-11-20T14:27:52;1.83;;;1.73;;
70946;SDS011;58605;48.700;8.760;2022-11-20T14:30:20;3.10;;;1.90;;
70946;SDS011;58605;48.700;8.760;2022-11-20T14:32:47;3.53;;;1.93;;
70946;SDS011;58605;48.700;8.760;2022-11-20T14:35:16;1.90;;;1.80;;
70946;SDS011;58605;48.700;8.760;2022-11-20T14:37:45;2.20;;;2.00;;
70946;SDS011;58605;48.700;8.760;2022-11-20T14:40:28;3.47;;;2.17;;
70946;SDS011;58605;48.700;8.760;2022-11-20T14:42:57;2.77;;;1.80;;
70946;SDS011;58605;48.700;8.760;2022-11-20T14:45:24;2.33;;;1.90;;
70946;SDS011;58605;48.700;8.760;2022-11-20T14:47:51;2.57;;;1.80;;
70946;SDS011;58605;48.700;8.760;2022-11-20T14:50:19;2.23;;;1.70;;
70946;SDS011;58605;48.700;8.760;2022-11-20T14:52:51;5.77;;;2.40;;
70946;SDS011;58605;48.700;8.760;2022-11-20T14:55:25;3.10;;;2.27;;
70946;SDS011;58605;48.700;8.760;2022-11-20T14:57:54;4.07;;;2.20;;
70946;SDS011;58605;48.700;8.760;2022-11-20T15:00:23;3.47;;;2.23;;
70946;SDS011;58605;48.700;8.760;2022-11-20T15:02:50;3.77;;;2.23;;
70946;SDS011;58605;48.700;8.760;2022-11-20T15:05:17;3.37;;;2.23;;